createdAt,value
2017-10-21T00:00:33.785Z,5.20
2017-10-21T00:03:01.560Z,6.00
2017-10-21T00:05:29.366Z,4.73
2017-10-21T00:07:57.063Z,5.83
2017-10-21T00:10:24.819Z,5.73
2017-10-21T00:12:53.060Z,5.83
2017-10-21T00:15:20.766Z,6.43
2017-10-21T00:17:48.460Z,5.90
2017-10-21T00:20:16.211Z,5.10
2017-10-21T00:22:43.914Z,5.03
2017-10-21T00:25:11.669Z,5.13
2017-10-21T00:27:39.398Z,4.70
2017-10-21T00:30:07.137Z,5.43
2017-10-21T00:32:34.825Z,5.57
2017-10-21T00:35:02.593Z,6.13
2017-10-21T00:37:30.347Z,4.50
2017-10-21T00:39:58.210Z,5.10
2017-10-21T00:42:25.946Z,4.50
2017-10-21T00:44:53.735Z,5.40
2017-10-21T00:47:21.474Z,5.00
2017-10-21T00:49:49.237Z,5.00
2017-10-21T00:52:16.920Z,6.30
2017-10-21T00:54:44.628Z,5.00
2017-10-21T00:57:12.444Z,5.70
2017-10-21T00:59:40.225Z,5.10
2017-10-21T01:02:07.948Z,4.90
2017-10-21T01:04:35.754Z,6.27
2017-10-21T01:07:04.550Z,5.67
2017-10-21T01:09:32.322Z,5.43
2017-10-21T01:12:00.071Z,5.93
2017-10-21T01:14:27.901Z,6.20
2017-10-21T01:16:56.450Z,5.33
2017-10-21T01:19:24.189Z,5.50
2017-10-21T01:21:51.992Z,6.30
2017-10-21T01:24:19.752Z,5.63
2017-10-21T01:26:47.486Z,6.03
2017-10-21T01:29:15.318Z,5.63
2017-10-21T01:31:43.613Z,5.57
2017-10-21T01:34:11.367Z,4.63
2017-10-21T01:36:39.181Z,5.23
2017-10-21T01:39:06.974Z,5.43
2017-10-21T01:41:34.808Z,5.20
2017-10-21T01:44:02.542Z,5.10
2017-10-21T01:46:30.307Z,4.40
2017-10-21T01:48:58.162Z,5.40
2017-10-21T01:51:25.881Z,4.43
2017-10-21T01:53:53.611Z,4.33
2017-10-21T01:56:21.381Z,4.53
2017-10-21T01:58:49.135Z,4.33
2017-10-21T02:01:16.871Z,5.27
2017-10-21T02:03:44.600Z,5.23
2017-10-21T02:06:12.355Z,4.67
2017-10-21T02:08:40.072Z,4.47
2017-10-21T02:11:07.838Z,5.00
2017-10-21T02:13:35.617Z,4.13
2017-10-21T02:16:03.406Z,5.10
2017-10-21T02:18:31.124Z,4.13
2017-10-21T02:20:58.980Z,5.00
2017-10-21T02:23:26.724Z,5.57
2017-10-21T02:25:54.536Z,5.00
2017-10-21T02:28:22.294Z,5.47
2017-10-21T02:30:50.080Z,5.43
2017-10-21T02:33:17.815Z,5.67
2017-10-21T02:35:45.534Z,5.47
2017-10-21T02:38:13.336Z,5.17
2017-10-21T02:40:41.098Z,6.27
2017-10-21T02:43:08.845Z,5.50
2017-10-21T02:45:36.613Z,5.27
2017-10-21T02:48:04.391Z,6.80
2017-10-21T02:50:32.074Z,5.97
2017-10-21T02:52:59.829Z,6.20
2017-10-21T02:55:27.523Z,5.50
2017-10-21T02:57:55.284Z,5.40
2017-10-21T03:00:23.037Z,5.90
2017-10-21T03:02:50.853Z,5.37
2017-10-21T03:05:18.642Z,5.97
2017-10-21T03:07:46.437Z,5.33
2017-10-21T03:10:14.373Z,7.50
2017-10-21T03:12:42.080Z,5.90
2017-10-21T03:15:09.793Z,6.73
2017-10-21T03:17:37.571Z,6.33
2017-10-21T03:20:05.371Z,7.27
2017-10-21T03:22:33.103Z,5.13
2017-10-21T03:25:00.819Z,6.63
2017-10-21T03:27:28.560Z,5.50
2017-10-21T03:29:56.384Z,5.17
2017-10-21T03:32:24.080Z,4.70
2017-10-21T03:34:51.831Z,4.97
2017-10-21T03:37:20.202Z,5.77
2017-10-21T03:39:47.953Z,5.83
2017-10-21T03:42:15.660Z,6.63
2017-10-21T03:44:43.436Z,6.27
2017-10-21T03:47:11.110Z,5.47
2017-10-21T03:49:38.864Z,5.37
2017-10-21T03:52:06.589Z,5.70
2017-10-21T03:54:34.473Z,5.73
2017-10-21T03:57:02.418Z,6.07
2017-10-21T03:59:30.076Z,5.90
2017-10-21T04:01:57.826Z,6.67
2017-10-21T04:04:25.488Z,6.17
2017-10-21T04:06:53.186Z,6.37
2017-10-21T04:09:20.967Z,6.17
2017-10-21T04:11:48.704Z,6.30
2017-10-21T04:14:16.427Z,6.10
2017-10-21T04:16:44.273Z,5.57
2017-10-21T04:19:11.994Z,6.60
2017-10-21T04:21:39.859Z,5.07
2017-10-21T04:24:07.737Z,6.10
2017-10-21T04:26:35.501Z,5.73
2017-10-21T04:29:03.295Z,5.03
2017-10-21T04:31:31.035Z,5.93
2017-10-21T04:33:58.733Z,5.60
2017-10-21T04:36:26.480Z,4.20
2017-10-21T04:38:54.198Z,5.37
2017-10-21T04:41:21.860Z,5.90
2017-10-21T04:43:49.642Z,5.60
2017-10-21T04:46:17.370Z,6.20
2017-10-21T04:48:45.214Z,5.70
2017-10-21T04:51:12.902Z,6.20
2017-10-21T04:53:40.655Z,6.57
2017-10-21T04:56:08.317Z,5.43
2017-10-21T04:58:35.992Z,5.80
2017-10-21T05:01:03.734Z,6.03
2017-10-21T05:03:31.420Z,5.83
2017-10-21T05:05:59.117Z,6.17
2017-10-21T05:08:26.825Z,6.13
2017-10-21T05:10:54.575Z,4.90
2017-10-21T05:13:22.274Z,5.40
2017-10-21T05:15:50.030Z,5.30
2017-10-21T05:18:17.740Z,6.20
2017-10-21T05:20:45.444Z,5.30
2017-10-21T05:23:14.204Z,6.87
2017-10-21T05:25:42.171Z,6.23
2017-10-21T05:28:09.997Z,7.13
2017-10-21T05:30:37.688Z,7.10
2017-10-21T05:33:05.448Z,5.57
2017-10-21T05:35:33.132Z,6.40
2017-10-21T05:38:00.910Z,5.90
2017-10-21T05:40:28.819Z,5.80
2017-10-21T05:42:56.830Z,6.13
2017-10-21T05:45:24.656Z,5.60
2017-10-21T05:47:52.547Z,6.67
2017-10-21T05:50:20.420Z,6.80
2017-10-21T05:52:48.239Z,8.40
2017-10-21T05:55:16.084Z,7.73
2017-10-21T05:57:43.870Z,9.00
2017-10-21T06:00:11.707Z,8.10
2017-10-21T06:02:39.660Z,7.67
2017-10-21T06:05:07.408Z,9.53
2017-10-21T06:07:35.204Z,8.67
2017-10-21T06:10:03.055Z,9.50
2017-10-21T06:12:30.966Z,9.00
2017-10-21T06:14:59.057Z,9.07
2017-10-21T06:17:36.688Z,8.57
2017-10-21T06:20:04.580Z,9.57
2017-10-21T06:22:32.427Z,10.17
2017-10-21T06:25:00.131Z,8.93
2017-10-21T06:27:28.032Z,10.57
2017-10-21T06:29:56.222Z,12.00
2017-10-21T06:32:25.080Z,10.53
2017-10-21T06:34:53.046Z,16.60
2017-10-21T06:37:20.901Z,17.03
2017-10-21T06:39:48.668Z,11.67
2017-10-21T06:42:16.503Z,13.23
2017-10-21T06:44:44.340Z,12.40
2017-10-21T06:47:12.096Z,11.50
2017-10-21T06:49:39.928Z,12.37
2017-10-21T06:52:07.677Z,11.97
2017-10-21T06:54:36.736Z,12.97
2017-10-21T06:57:04.704Z,10.80
2017-10-21T06:59:32.476Z,11.43
2017-10-21T07:02:00.318Z,10.10
2017-10-21T07:04:28.012Z,7.67
2017-10-21T07:06:55.834Z,7.40
2017-10-21T07:09:23.556Z,10.80
2017-10-21T07:11:51.437Z,11.77
2017-10-21T07:14:19.426Z,10.63
2017-10-21T07:16:47.272Z,12.93
2017-10-21T07:19:15.715Z,13.67
2017-10-21T07:21:43.526Z,11.50
2017-10-21T07:24:13.915Z,10.77
2017-10-21T07:26:43.296Z,11.50
2017-10-21T07:29:11.265Z,11.40
2017-10-21T07:31:39.194Z,10.93
2017-10-21T07:34:10.670Z,12.00
2017-10-21T07:36:38.733Z,10.53
2017-10-21T07:39:06.676Z,9.43
2017-10-21T07:41:34.483Z,10.70
2017-10-21T07:44:02.283Z,10.80
2017-10-21T07:46:30.078Z,9.53
2017-10-21T07:48:57.868Z,12.57
2017-10-21T07:51:25.823Z,11.17
2017-10-21T07:53:53.874Z,8.60
2017-10-21T07:56:21.830Z,9.30
2017-10-21T07:58:49.726Z,8.97
2017-10-21T08:01:17.719Z,9.63
2017-10-21T08:03:45.484Z,10.80
2017-10-21T08:06:13.494Z,10.10
2017-10-21T08:08:41.545Z,11.93
2017-10-21T08:11:09.845Z,19.87
2017-10-21T08:13:37.743Z,16.43
2017-10-21T08:16:05.769Z,14.60
2017-10-21T08:18:33.843Z,11.70
2017-10-21T08:21:01.926Z,10.63
2017-10-21T08:23:29.730Z,11.80
2017-10-21T08:25:58.606Z,11.10
2017-10-21T08:28:26.578Z,10.70
2017-10-21T08:30:54.449Z,12.33
2017-10-21T08:33:22.311Z,11.83
2017-10-21T08:35:50.197Z,10.27
2017-10-21T08:38:18.220Z,9.30
2017-10-21T08:40:46.070Z,10.20
2017-10-21T08:43:14.084Z,10.20
2017-10-21T08:45:42.237Z,10.00
2017-10-21T08:48:10.275Z,9.90
2017-10-21T08:50:39.377Z,13.87
2017-10-21T08:53:07.232Z,10.20
2017-10-21T08:55:35.253Z,9.70
2017-10-21T08:58:03.851Z,11.27
2017-10-21T09:00:32.352Z,9.30
2017-10-21T09:03:00.936Z,10.03
2017-10-21T09:05:28.929Z,10.50
2017-10-21T09:07:57.743Z,10.80
2017-10-21T09:10:25.593Z,12.40
2017-10-21T09:12:53.385Z,9.53
2017-10-21T09:15:22.225Z,9.90
2017-10-21T09:17:50.186Z,10.80
2017-10-21T09:20:18.233Z,12.07
2017-10-21T09:22:46.183Z,14.93
2017-10-21T09:25:14.092Z,10.80
2017-10-21T09:27:42.643Z,9.20
2017-10-21T09:30:11.105Z,8.90
2017-10-21T09:32:39.842Z,9.03
2017-10-21T09:35:07.684Z,8.57
2017-10-21T09:37:35.624Z,8.87
2017-10-21T09:40:04.358Z,8.73
2017-10-21T09:42:32.381Z,9.20
2017-10-21T09:45:00.289Z,15.73
2017-10-21T09:47:28.202Z,12.10
2017-10-21T09:49:56.964Z,10.60
2017-10-21T09:52:25.288Z,8.37
2017-10-21T09:54:54.311Z,9.50
2017-10-21T09:57:22.246Z,10.27
2017-10-21T09:59:50.246Z,8.23
2017-10-21T10:02:18.183Z,8.50
2017-10-21T10:04:50.036Z,20.37
2017-10-21T10:07:17.984Z,8.40
2017-10-21T10:09:46.008Z,7.97
2017-10-21T10:12:13.948Z,8.90
2017-10-21T10:14:41.867Z,9.20
2017-10-21T10:17:11.017Z,8.70
2017-10-21T10:19:39.112Z,8.10
2017-10-21T10:22:07.061Z,8.17
2017-10-21T10:24:34.933Z,7.67
2017-10-21T10:27:02.815Z,10.40
2017-10-21T10:29:37.166Z,10.00
2017-10-21T10:32:05.109Z,10.80
2017-10-21T10:34:33.570Z,8.97
2017-10-21T10:37:02.531Z,9.90
2017-10-21T10:39:31.268Z,8.43
2017-10-21T10:41:59.006Z,9.10
2017-10-21T10:44:27.650Z,7.77
2017-10-21T10:46:56.517Z,8.87
2017-10-21T10:49:24.611Z,8.60
2017-10-21T10:51:52.432Z,8.00
2017-10-21T10:54:20.278Z,9.40
2017-10-21T10:56:48.012Z,8.90
2017-10-21T10:59:15.729Z,10.43
2017-10-21T11:01:43.498Z,26.87
2017-10-21T11:04:11.227Z,33.23
2017-10-21T11:06:39.872Z,17.80
2017-10-21T11:09:09.443Z,15.37
2017-10-21T11:11:37.205Z,10.10
2017-10-21T11:14:04.912Z,11.10
2017-10-21T11:16:32.668Z,11.20
2017-10-21T11:19:00.385Z,13.30
2017-10-21T11:21:28.107Z,16.60
2017-10-21T11:23:55.866Z,12.23
2017-10-21T11:26:24.462Z,11.20
2017-10-21T11:28:52.237Z,10.43
2017-10-21T11:31:19.992Z,9.27
2017-10-21T11:33:49.464Z,10.33
2017-10-21T11:36:18.093Z,9.73
2017-10-21T11:38:45.773Z,11.17
2017-10-21T11:41:14.621Z,12.27
2017-10-21T11:43:42.385Z,25.37
2017-10-21T11:46:10.094Z,16.67
2017-10-21T11:48:37.897Z,13.17
2017-10-21T11:51:05.661Z,11.93
2017-10-21T11:53:33.366Z,11.30
2017-10-21T11:56:01.964Z,16.00
2017-10-21T11:58:29.693Z,15.23
2017-10-21T12:00:57.469Z,11.83
2017-10-21T12:03:25.210Z,10.97
2017-10-21T12:05:52.905Z,11.93
2017-10-21T12:08:20.659Z,11.80
2017-10-21T12:10:48.416Z,14.00
2017-10-21T12:13:16.168Z,10.50
2017-10-21T12:15:43.931Z,12.60
2017-10-21T12:18:12.671Z,13.10
2017-10-21T12:20:40.377Z,14.30
2017-10-21T12:23:08.151Z,10.17
2017-10-21T12:25:35.856Z,10.70
2017-10-21T12:28:04.495Z,12.10
2017-10-21T12:30:32.291Z,11.30
2017-10-21T12:33:00.021Z,12.40
2017-10-21T12:35:27.725Z,12.57
2017-10-21T12:37:56.829Z,12.47
2017-10-21T12:40:25.566Z,11.97
2017-10-21T12:42:57.301Z,10.73
2017-10-21T12:45:27.838Z,11.70
2017-10-21T12:47:55.669Z,13.20
2017-10-21T12:50:23.516Z,12.47
2017-10-21T12:52:51.271Z,13.00
2017-10-21T12:55:19.022Z,12.90
2017-10-21T12:57:46.767Z,12.77
2017-10-21T13:00:14.515Z,12.90
2017-10-21T13:02:42.279Z,13.33
2017-10-21T13:05:10.045Z,15.13
2017-10-21T13:07:37.777Z,14.07
2017-10-21T13:10:05.590Z,13.30
2017-10-21T13:12:33.325Z,14.07
2017-10-21T13:15:01.120Z,13.10
2017-10-21T13:17:28.839Z,13.00
2017-10-21T13:19:56.560Z,15.37
2017-10-21T13:22:24.329Z,11.83
2017-10-21T13:24:52.118Z,13.40
2017-10-21T13:27:19.865Z,11.23
2017-10-21T13:29:47.615Z,10.73
2017-10-21T13:32:15.565Z,10.23
2017-10-21T13:34:43.358Z,11.33
2017-10-21T13:37:11.071Z,12.60
2017-10-21T13:39:39.175Z,15.33
2017-10-21T13:42:06.898Z,11.87
2017-10-21T13:44:34.657Z,11.33
2017-10-21T13:47:02.394Z,14.00
2017-10-21T13:49:30.101Z,11.30
2017-10-21T13:51:57.901Z,11.67
2017-10-21T13:54:25.749Z,11.70
2017-10-21T13:56:53.498Z,11.83
2017-10-21T13:59:21.283Z,10.30
2017-10-21T14:01:49.088Z,10.33
2017-10-21T14:04:16.770Z,9.27
2017-10-21T14:06:44.968Z,10.53
2017-10-21T14:09:12.754Z,9.30
2017-10-21T14:11:40.644Z,8.90
2017-10-21T14:14:09.588Z,9.00
2017-10-21T14:16:37.298Z,8.73
2017-10-21T14:19:05.091Z,9.23
2017-10-21T14:21:32.823Z,10.17
2017-10-21T14:24:00.556Z,11.63
2017-10-21T14:26:28.345Z,10.80
2017-10-21T14:28:57.333Z,9.37
2017-10-21T14:31:25.139Z,10.57
2017-10-21T14:33:52.950Z,10.60
2017-10-21T14:36:20.710Z,10.77
2017-10-21T14:38:48.499Z,10.73
2017-10-21T14:41:16.286Z,9.33
2017-10-21T14:43:44.059Z,9.70
2017-10-21T14:46:11.834Z,9.80
2017-10-21T14:48:39.581Z,11.10
2017-10-21T14:51:07.697Z,10.00
2017-10-21T14:53:35.468Z,9.83
2017-10-21T14:56:03.234Z,10.00
2017-10-21T14:58:31.001Z,10.73
2017-10-21T15:00:58.784Z,11.33
2017-10-21T15:03:26.480Z,10.80
2017-10-21T15:05:54.433Z,9.67
2017-10-21T15:08:22.171Z,10.93
2017-10-21T15:10:50.734Z,10.30
2017-10-21T15:13:19.102Z,8.70
2017-10-21T15:15:47.217Z,9.90
2017-10-21T15:18:14.974Z,10.80
2017-10-21T15:20:42.765Z,10.80
2017-10-21T15:23:10.505Z,9.40
2017-10-21T15:25:38.309Z,13.17
2017-10-21T15:28:06.114Z,9.90
2017-10-21T15:30:34.149Z,10.33
2017-10-21T15:33:01.999Z,9.30
2017-10-21T15:35:29.799Z,9.30
2017-10-21T15:37:57.887Z,9.17
2017-10-21T15:40:25.589Z,9.20
2017-10-21T15:42:53.350Z,8.90
2017-10-21T15:45:22.402Z,10.27
2017-10-21T15:47:50.282Z,8.27
2017-10-21T15:50:19.049Z,9.10
2017-10-21T15:52:47.204Z,10.47
2017-10-21T15:55:14.972Z,10.53
2017-10-21T15:57:42.797Z,11.00
2017-10-21T16:00:10.605Z,9.83
2017-10-21T16:02:38.406Z,9.60
2017-10-21T16:05:06.397Z,8.17
2017-10-21T16:07:34.155Z,9.27
2017-10-21T16:10:02.336Z,10.73
2017-10-21T16:12:30.116Z,9.57
2017-10-21T16:14:57.883Z,11.00
2017-10-21T16:17:25.631Z,11.27
2017-10-21T16:19:53.349Z,11.10
2017-10-21T16:22:21.150Z,10.07
2017-10-21T16:24:48.852Z,9.73
2017-10-21T16:27:16.557Z,8.17
2017-10-21T16:29:44.292Z,9.73
2017-10-21T16:32:12.063Z,7.60
2017-10-21T16:34:39.811Z,7.83
2017-10-21T16:37:07.590Z,8.70
2017-10-21T16:39:35.349Z,7.60
2017-10-21T16:42:03.153Z,10.37
2017-10-21T16:44:30.845Z,8.40
2017-10-21T16:46:58.626Z,8.97
2017-10-21T16:49:26.347Z,8.50
2017-10-21T16:51:54.240Z,8.03
2017-10-21T16:54:22.127Z,9.30
2017-10-21T16:56:49.979Z,8.77
2017-10-21T16:59:17.872Z,8.23
2017-10-21T17:01:45.663Z,7.90
2017-10-21T17:04:13.472Z,8.00
2017-10-21T17:06:42.045Z,8.80
2017-10-21T17:09:09.874Z,8.67
2017-10-21T17:11:37.603Z,8.93
2017-10-21T17:14:05.324Z,9.10
2017-10-21T17:16:33.222Z,9.10
2017-10-21T17:19:00.929Z,8.53
2017-10-21T17:21:28.756Z,8.73
2017-10-21T17:23:56.585Z,8.87
2017-10-21T17:26:24.332Z,8.50
2017-10-21T17:28:52.086Z,8.37
2017-10-21T17:31:20.029Z,7.30
2017-10-21T17:33:47.820Z,7.70
2017-10-21T17:36:15.605Z,8.30
2017-10-21T17:38:43.469Z,7.90
2017-10-21T17:41:11.278Z,6.93
2017-10-21T17:43:39.092Z,9.50
2017-10-21T17:46:08.086Z,7.97
2017-10-21T17:48:35.867Z,10.17
2017-10-21T17:51:03.711Z,7.63
2017-10-21T17:53:31.478Z,8.73
2017-10-21T17:55:59.274Z,9.90
2017-10-21T17:58:27.005Z,11.47
2017-10-21T18:00:54.830Z,12.27
2017-10-21T18:03:22.607Z,11.70
2017-10-21T18:05:50.549Z,11.73
2017-10-21T18:08:18.496Z,11.40
2017-10-21T18:10:46.293Z,10.43
2017-10-21T18:13:14.055Z,10.10
2017-10-21T18:15:41.924Z,8.93
2017-10-21T18:18:09.682Z,7.60
2017-10-21T18:20:37.420Z,7.57
2017-10-21T18:23:06.057Z,7.67
2017-10-21T18:25:34.630Z,7.27
2017-10-21T18:28:02.419Z,8.83
2017-10-21T18:30:30.200Z,8.00
2017-10-21T18:32:58.020Z,7.70
2017-10-21T18:35:25.852Z,7.23
2017-10-21T18:37:54.788Z,7.43
2017-10-21T18:40:22.655Z,6.83
2017-10-21T18:42:50.466Z,7.10
2017-10-21T18:45:18.487Z,6.17
2017-10-21T18:47:46.248Z,8.77
2017-10-21T18:50:13.950Z,7.43
2017-10-21T18:52:41.781Z,8.50
2017-10-21T18:55:09.536Z,8.43
2017-10-21T18:57:37.366Z,8.23
2017-10-21T19:00:05.116Z,9.80
2017-10-21T19:02:32.907Z,8.00
2017-10-21T19:05:00.639Z,8.93
2017-10-21T19:07:29.533Z,9.30
2017-10-21T19:09:58.146Z,8.47
2017-10-21T19:12:26.014Z,8.27
2017-10-21T19:14:53.752Z,8.10
2017-10-21T19:17:21.660Z,8.40
2017-10-21T19:19:49.457Z,9.43
2017-10-21T19:22:17.259Z,9.60
2017-10-21T19:24:44.979Z,8.63
2017-10-21T19:27:13.684Z,8.27
2017-10-21T19:29:41.509Z,7.93
2017-10-21T19:32:09.307Z,8.70
2017-10-21T19:34:37.153Z,8.57
2017-10-21T19:37:05.431Z,9.77
2017-10-21T19:39:33.206Z,9.57
2017-10-21T19:42:00.987Z,8.83
2017-10-21T19:44:28.692Z,9.20
2017-10-21T19:46:56.492Z,9.80
2017-10-21T19:49:24.209Z,9.77
2017-10-21T19:51:51.912Z,9.20
2017-10-21T19:54:19.681Z,9.10
2017-10-21T19:56:47.370Z,8.97
2017-10-21T19:59:15.069Z,9.30
2017-10-21T20:01:42.842Z,8.47
2017-10-21T20:04:10.601Z,8.10
2017-10-21T20:06:38.477Z,8.67
2017-10-21T20:09:06.846Z,8.80
2017-10-21T20:11:35.230Z,7.97
2017-10-21T20:14:02.981Z,9.73
2017-10-21T20:16:30.771Z,8.53
2017-10-21T20:18:58.540Z,8.93
2017-10-21T20:21:26.456Z,8.30
2017-10-21T20:23:54.160Z,9.80
2017-10-21T20:26:21.933Z,10.57
2017-10-21T20:28:49.661Z,9.17
2017-10-21T20:31:17.374Z,9.30
2017-10-21T20:33:45.178Z,9.90
2017-10-21T20:36:12.939Z,8.50
2017-10-21T20:38:40.754Z,11.80
2017-10-21T20:41:08.453Z,11.03
2017-10-21T20:43:36.234Z,9.57
2017-10-21T20:46:04.071Z,10.50
2017-10-21T20:48:31.825Z,9.17
2017-10-21T20:50:59.755Z,13.00
2017-10-21T20:53:27.506Z,10.10
2017-10-21T20:55:55.288Z,12.50
2017-10-21T20:58:23.043Z,10.30
2017-10-21T21:00:50.776Z,8.63
2017-10-21T21:03:18.589Z,10.00
2017-10-21T21:05:46.390Z,9.70
2017-10-21T21:08:14.106Z,9.23
2017-10-21T21:10:41.880Z,11.17
2017-10-21T21:13:09.585Z,11.00
2017-10-21T21:15:37.338Z,12.47
2017-10-21T21:18:05.071Z,12.53
2017-10-21T21:20:32.858Z,13.50
2017-10-21T21:23:00.652Z,14.13
2017-10-21T21:25:28.371Z,13.67
2017-10-21T21:27:56.085Z,10.17
2017-10-21T21:30:23.839Z,8.33
2017-10-21T21:32:51.589Z,9.00
2017-10-21T21:35:19.321Z,8.40
2017-10-21T21:37:47.094Z,8.13
2017-10-21T21:40:14.816Z,8.47
2017-10-21T21:42:42.604Z,7.87
2017-10-21T21:45:10.333Z,9.47
2017-10-21T21:47:38.030Z,9.07
2017-10-21T21:50:06.106Z,8.57
2017-10-21T21:52:33.851Z,10.63
2017-10-21T21:55:01.613Z,11.20
2017-10-21T21:57:29.414Z,11.23
2017-10-21T21:59:57.167Z,11.47
2017-10-21T22:02:24.985Z,8.87
2017-10-21T22:04:52.673Z,7.70
2017-10-21T22:07:20.407Z,8.73
2017-10-21T22:09:48.175Z,8.20
2017-10-21T22:12:15.896Z,6.57
2017-10-21T22:14:43.654Z,7.20
2017-10-21T22:17:11.372Z,6.73
2017-10-21T22:19:39.132Z,9.20
2017-10-21T22:22:06.845Z,6.93
2017-10-21T22:24:34.599Z,6.90
2017-10-21T22:27:02.427Z,6.53
2017-10-21T22:29:30.550Z,8.77
2017-10-21T22:31:58.250Z,8.43
2017-10-21T22:34:26.031Z,10.20
2017-10-21T22:36:53.711Z,8.77
2017-10-21T22:39:21.646Z,7.03
2017-10-21T22:41:49.402Z,6.87
2017-10-21T22:44:17.086Z,7.80
2017-10-21T22:46:44.830Z,10.20
2017-10-21T22:49:12.525Z,9.10
2017-10-21T22:51:40.304Z,9.57
2017-10-21T22:54:08.045Z,8.33
2017-10-21T22:56:35.792Z,9.43
2017-10-21T22:59:03.488Z,8.57
2017-10-21T23:01:31.208Z,8.10
2017-10-21T23:03:58.944Z,7.10
2017-10-21T23:06:26.758Z,8.00
2017-10-21T23:08:54.520Z,6.93
2017-10-21T23:11:22.214Z,7.40
2017-10-21T23:13:50.023Z,7.63
2017-10-21T23:16:17.756Z,7.33
2017-10-21T23:18:45.444Z,7.47
2017-10-21T23:21:13.373Z,8.30
2017-10-21T23:23:41.085Z,7.60
2017-10-21T23:26:08.846Z,6.73
2017-10-21T23:28:36.664Z,7.40
2017-10-21T23:31:04.360Z,8.20
2017-10-21T23:33:32.105Z,8.37
2017-10-21T23:35:59.799Z,9.30
2017-10-21T23:38:27.483Z,9.30
2017-10-21T23:40:55.228Z,9.30
2017-10-21T23:43:22.921Z,7.80
2017-10-21T23:45:50.684Z,7.73
2017-10-21T23:48:18.477Z,7.03
2017-10-21T23:50:46.152Z,8.80
2017-10-21T23:53:13.901Z,9.87
2017-10-21T23:55:41.903Z,9.17
2017-10-21T23:58:09.651Z,10.63
